sensor_id;sensor_type;location;lat;lon;timestamp;P1;durP1;ratioP1;P2;durP2;ratioP2
19495;SDS011;9888;48.606;9.630;2022-08-03T00:00:53;9.20;;;4.97;;
19495;SDS011;9888;48.606;9.630;2022-08-03T00:03:21;8.53;;;5.30;;
19495;SDS011;9888;48.606;9.630;2022-08-03T00:06:13;8.47;;;5.30;;
19495;SDS011;9888;48.606;9.630;2022-08-03T00:08:47;8.10;;;5.03;;
19495;SDS011;9888;48.606;9.630;2022-08-03T00:11:17;9.27;;;5.03;;
19495;SDS011;9888;48.606;9.630;2022-08-03T00:13:48;8.93;;;5.30;;
19495;SDS011;9888;48.606;9.630;2022-08-03T00:16:16;8.13;;;4.67;;
19495;SDS011;9888;48.606;9.630;2022-08-03T00:18:44;8.73;;;5.13;;
19495;SDS011;9888;48.606;9.630;2022-08-03T00:21:13;8.87;;;5.17;;
19495;SDS011;9888;48.606;9.630;2022-08-03T00:23:40;10.80;;;4.90;;
19495;SDS011;9888;48.606;9.630;2022-08-03T00:26:15;10.70;;;5.80;;
19495;SDS011;9888;48.606;9.630;2022-08-03T00:28:44;9.00;;;5.40;;
19495;SDS011;9888;48.606;9.630;2022-08-03T00:31:16;8.80;;;5.27;;
19495;SDS011;9888;48.606;9.630;2022-08-03T00:33:50;8.40;;;5.60;;
19495;SDS011;9888;48.606;9.630;2022-08-03T00:36:18;9.60;;;5.60;;
19495;SDS011;9888;48.606;9.630;2022-08-03T00:38:54;8.87;;;5.50;;
19495;SDS011;9888;48.606;9.630;2022-08-03T00:41:22;11.00;;;5.63;;
19495;SDS011;9888;48.606;9.630;2022-08-03T00:43:49;8.60;;;5.07;;
19495;SDS011;9888;48.606;9.630;2022-08-03T00:46:21;8.67;;;5.20;;
19495;SDS011;9888;48.606;9.630;2022-08-03T00:48:49;13.27;;;5.70;;
19495;SDS011;9888;48.606;9.630;2022-08-03T00:51:18;8.90;;;6.17;;
19495;SDS011;9888;48.606;9.630;2022-08-03T00:53:46;9.87;;;6.20;;
19495;SDS011;9888;48.606;9.630;2022-08-03T00:56:15;9.40;;;5.50;;
19495;SDS011;9888;48.606;9.630;2022-08-03T00:58:44;9.97;;;5.90;;
19495;SDS011;9888;48.606;9.630;2022-08-03T01:01:13;7.63;;;5.20;;
19495;SDS011;9888;48.606;9.630;2022-08-03T01:04:01;10.03;;;5.03;;
19495;SDS011;9888;48.606;9.630;2022-08-03T01:28:28;11.03;;;6.10;;
19495;SDS011;9888;48.606;9.630;2022-08-03T01:31:21;11.10;;;6.23;;
19495;SDS011;9888;48.606;9.630;2022-08-03T01:34:44;9.00;;;5.77;;
19495;SDS011;9888;48.606;9.630;2022-08-03T01:37:20;8.70;;;5.57;;
19495;SDS011;9888;48.606;9.630;2022-08-03T01:39:52;9.10;;;5.73;;
19495;SDS011;9888;48.606;9.630;2022-08-03T01:42:24;10.20;;;5.90;;
19495;SDS011;9888;48.606;9.630;2022-08-03T01:58:16;12.83;;;8.87;;
19495;SDS011;9888;48.606;9.630;2022-08-03T02:00:54;8.97;;;6.10;;
19495;SDS011;9888;48.606;9.630;2022-08-03T02:06:11;10.40;;;6.43;;
19495;SDS011;9888;48.606;9.630;2022-08-03T02:08:42;8.83;;;5.90;;
19495;SDS011;9888;48.606;9.630;2022-08-03T02:11:21;9.20;;;6.00;;
19495;SDS011;9888;48.606;9.630;2022-08-03T02:13:50;9.27;;;5.90;;
19495;SDS011;9888;48.606;9.630;2022-08-03T02:16:19;9.83;;;6.00;;
19495;SDS011;9888;48.606;9.630;2022-08-03T02:18:48;11.63;;;6.00;;
19495;SDS011;9888;48.606;9.630;2022-08-03T02:21:17;10.70;;;6.10;;
19495;SDS011;9888;48.606;9.630;2022-08-03T02:23:49;10.40;;;6.33;;
19495;SDS011;9888;48.606;9.630;2022-08-03T02:26:17;10.70;;;5.90;;
19495;SDS011;9888;48.606;9.630;2022-08-03T02:28:49;10.43;;;6.10;;
19495;SDS011;9888;48.606;9.630;2022-08-03T02:31:22;8.93;;;6.17;;
19495;SDS011;9888;48.606;9.630;2022-08-03T02:33:58;10.00;;;6.23;;
19495;SDS011;9888;48.606;9.630;2022-08-03T02:36:30;9.17;;;5.70;;
19495;SDS011;9888;48.606;9.630;2022-08-03T02:39:02;8.87;;;5.93;;
19495;SDS011;9888;48.606;9.630;2022-08-03T02:41:44;8.87;;;5.90;;
19495;SDS011;9888;48.606;9.630;2022-08-03T02:44:17;9.57;;;5.50;;
19495;SDS011;9888;48.606;9.630;2022-08-03T02:46:53;9.27;;;5.70;;
19495;SDS011;9888;48.606;9.630;2022-08-03T02:49:24;10.20;;;6.10;;
19495;SDS011;9888;48.606;9.630;2022-08-03T02:51:56;9.40;;;5.67;;
19495;SDS011;9888;48.606;9.630;2022-08-03T02:54:26;9.87;;;6.27;;
19495;SDS011;9888;48.606;9.630;2022-08-03T02:57:06;9.70;;;5.90;;
19495;SDS011;9888;48.606;9.630;2022-08-03T02:59:36;9.30;;;5.70;;
19495;SDS011;9888;48.606;9.630;2022-08-03T03:02:06;8.50;;;5.73;;
19495;SDS011;9888;48.606;9.630;2022-08-03T03:04:34;8.90;;;5.60;;
19495;SDS011;9888;48.606;9.630;2022-08-03T03:07:03;13.70;;;6.60;;
19495;SDS011;9888;48.606;9.630;2022-08-03T03:09:32;9.13;;;5.80;;
19495;SDS011;9888;48.606;9.630;2022-08-03T03:12:02;10.30;;;6.03;;
19495;SDS011;9888;48.606;9.630;2022-08-03T03:14:33;11.27;;;6.50;;
19495;SDS011;9888;48.606;9.630;2022-08-03T03:17:06;9.73;;;5.20;;
19495;SDS011;9888;48.606;9.630;2022-08-03T03:23:10;13.33;;;6.23;;
19495;SDS011;9888;48.606;9.630;2022-08-03T03:25:55;8.60;;;5.60;;
19495;SDS011;9888;48.606;9.630;2022-08-03T03:28:28;9.63;;;5.87;;
19495;SDS011;9888;48.606;9.630;2022-08-03T03:34:19;13.40;;;6.03;;
19495;SDS011;9888;48.606;9.630;2022-08-03T03:40:10;8.23;;;5.43;;
19495;SDS011;9888;48.606;9.630;2022-08-03T03:42:43;8.80;;;5.53;;
19495;SDS011;9888;48.606;9.630;2022-08-03T03:45:13;11.13;;;6.10;;
19495;SDS011;9888;48.606;9.630;2022-08-03T03:47:42;10.70;;;5.97;;
19495;SDS011;9888;48.606;9.630;2022-08-03T03:50:12;10.77;;;6.10;;
19495;SDS011;9888;48.606;9.630;2022-08-03T03:52:44;10.20;;;6.40;;
19495;SDS011;9888;48.606;9.630;2022-08-03T03:55:16;12.83;;;7.77;;
19495;SDS011;9888;48.606;9.630;2022-08-03T03:58:05;9.40;;;5.97;;
19495;SDS011;9888;48.606;9.630;2022-08-03T04:00:49;9.03;;;5.77;;
19495;SDS011;9888;48.606;9.630;2022-08-03T04:03:25;11.33;;;6.50;;
19495;SDS011;9888;48.606;9.630;2022-08-03T04:09:02;9.73;;;6.23;;
19495;SDS011;9888;48.606;9.630;2022-08-03T04:15:14;10.57;;;6.27;;
19495;SDS011;9888;48.606;9.630;2022-08-03T04:17:48;9.80;;;6.57;;
19495;SDS011;9888;48.606;9.630;2022-08-03T04:20:19;10.90;;;6.67;;
19495;SDS011;9888;48.606;9.630;2022-08-03T04:26:25;9.80;;;6.43;;
19495;SDS011;9888;48.606;9.630;2022-08-03T04:28:58;13.40;;;6.07;;
19495;SDS011;9888;48.606;9.630;2022-08-03T04:31:42;17.40;;;6.60;;
19495;SDS011;9888;48.606;9.630;2022-08-03T04:34:15;14.60;;;6.60;;
19495;SDS011;9888;48.606;9.630;2022-08-03T04:36:52;14.70;;;7.27;;
19495;SDS011;9888;48.606;9.630;2022-08-03T04:39:26;19.63;;;7.57;;
19495;SDS011;9888;48.606;9.630;2022-08-03T04:42:05;17.60;;;7.57;;
19495;SDS011;9888;48.606;9.630;2022-08-03T04:45:22;12.17;;;7.57;;
19495;SDS011;9888;48.606;9.630;2022-08-03T04:47:52;16.40;;;8.10;;
19495;SDS011;9888;48.606;9.630;2022-08-03T04:50:24;14.43;;;7.70;;
19495;SDS011;9888;48.606;9.630;2022-08-03T04:53:01;12.40;;;7.90;;
19495;SDS011;9888;48.606;9.630;2022-08-03T04:55:34;23.47;;;8.53;;
19495;SDS011;9888;48.606;9.630;2022-08-03T04:58:02;30.33;;;8.83;;
19495;SDS011;9888;48.606;9.630;2022-08-03T05:18:19;18.20;;;8.17;;
19495;SDS011;9888;48.606;9.630;2022-08-03T05:20:48;24.30;;;9.30;;
19495;SDS011;9888;48.606;9.630;2022-08-03T05:33:10;36.63;;;13.73;;
19495;SDS011;9888;48.606;9.630;2022-08-03T05:39:41;30.10;;;11.43;;
19495;SDS011;9888;48.606;9.630;2022-08-03T05:49:07;23.57;;;8.50;;
19495;SDS011;9888;48.606;9.630;2022-08-03T05:58:18;14.03;;;6.00;;
19495;SDS011;9888;48.606;9.630;2022-08-03T06:00:52;9.83;;;5.10;;
19495;SDS011;9888;48.606;9.630;2022-08-03T06:03:21;12.30;;;5.00;;
19495;SDS011;9888;48.606;9.630;2022-08-03T06:05:54;8.43;;;4.93;;
19495;SDS011;9888;48.606;9.630;2022-08-03T06:08:27;8.20;;;5.00;;
19495;SDS011;9888;48.606;9.630;2022-08-03T06:10:55;8.70;;;5.27;;
19495;SDS011;9888;48.606;9.630;2022-08-03T06:13:22;8.10;;;4.60;;
19495;SDS011;9888;48.606;9.630;2022-08-03T06:15:53;8.93;;;4.70;;
19495;SDS011;9888;48.606;9.630;2022-08-03T06:18:21;22.80;;;4.90;;
19495;SDS011;9888;48.606;9.630;2022-08-03T06:20:50;8.20;;;4.47;;
19495;SDS011;9888;48.606;9.630;2022-08-03T06:23:17;11.30;;;4.90;;
19495;SDS011;9888;48.606;9.630;2022-08-03T06:25:44;9.30;;;4.37;;
19495;SDS011;9888;48.606;9.630;2022-08-03T06:28:18;9.97;;;5.00;;
19495;SDS011;9888;48.606;9.630;2022-08-03T06:31:02;11.30;;;4.73;;
19495;SDS011;9888;48.606;9.630;2022-08-03T06:33:30;8.23;;;4.47;;
19495;SDS011;9888;48.606;9.630;2022-08-03T06:35:59;8.43;;;4.37;;
19495;SDS011;9888;48.606;9.630;2022-08-03T06:38:29;8.67;;;4.07;;
19495;SDS011;9888;48.606;9.630;2022-08-03T06:40:57;10.87;;;4.60;;
19495;SDS011;9888;48.606;9.630;2022-08-03T06:43:25;9.07;;;4.50;;
19495;SDS011;9888;48.606;9.630;2022-08-03T06:45:54;12.60;;;6.67;;
19495;SDS011;9888;48.606;9.630;2022-08-03T06:48:23;19.70;;;11.80;;
19495;SDS011;9888;48.606;9.630;2022-08-03T06:50:51;24.50;;;13.87;;
19495;SDS011;9888;48.606;9.630;2022-08-03T06:53:19;28.50;;;17.67;;
19495;SDS011;9888;48.606;9.630;2022-08-03T06:56:01;22.40;;;14.43;;
19495;SDS011;9888;48.606;9.630;2022-08-03T06:58:32;18.13;;;12.07;;
19495;SDS011;9888;48.606;9.630;2022-08-03T07:01:01;14.03;;;8.20;;
19495;SDS011;9888;48.606;9.630;2022-08-03T07:03:31;15.03;;;6.33;;
19495;SDS011;9888;48.606;9.630;2022-08-03T07:06:00;12.10;;;5.57;;
19495;SDS011;9888;48.606;9.630;2022-08-03T07:08:27;9.90;;;4.60;;
19495;SDS011;9888;48.606;9.630;2022-08-03T07:10:55;10.27;;;4.63;;
19495;SDS011;9888;48.606;9.630;2022-08-03T07:13:22;10.50;;;3.80;;
19495;SDS011;9888;48.606;9.630;2022-08-03T07:15:50;9.03;;;3.70;;
19495;SDS011;9888;48.606;9.630;2022-08-03T07:18:18;7.70;;;3.17;;
19495;SDS011;9888;48.606;9.630;2022-08-03T07:20:47;6.03;;;3.13;;
19495;SDS011;9888;48.606;9.630;2022-08-03T07:23:14;6.40;;;3.77;;
19495;SDS011;9888;48.606;9.630;2022-08-03T07:25:43;5.77;;;2.80;;
19495;SDS011;9888;48.606;9.630;2022-08-03T07:28:10;6.50;;;2.90;;
19495;SDS011;9888;48.606;9.630;2022-08-03T07:30:37;5.83;;;2.87;;
19495;SDS011;9888;48.606;9.630;2022-08-03T07:33:07;13.30;;;3.70;;
19495;SDS011;9888;48.606;9.630;2022-08-03T07:35:34;8.93;;;3.40;;
19495;SDS011;9888;48.606;9.630;2022-08-03T07:38:04;10.80;;;3.00;;
19495;SDS011;9888;48.606;9.630;2022-08-03T07:40:31;6.23;;;2.70;;
19495;SDS011;9888;48.606;9.630;2022-08-03T07:43:00;6.23;;;3.00;;
19495;SDS011;9888;48.606;9.630;2022-08-03T07:45:29;6.90;;;2.93;;
19495;SDS011;9888;48.606;9.630;2022-08-03T07:47:56;7.20;;;2.70;;
19495;SDS011;9888;48.606;9.630;2022-08-03T07:50:24;6.00;;;2.63;;
19495;SDS011;9888;48.606;9.630;2022-08-03T07:52:52;6.60;;;3.20;;
19495;SDS011;9888;48.606;9.630;2022-08-03T07:55:24;5.90;;;2.83;;
19495;SDS011;9888;48.606;9.630;2022-08-03T07:58:03;5.70;;;2.30;;
19495;SDS011;9888;48.606;9.630;2022-08-03T08:00:32;7.30;;;2.50;;
19495;SDS011;9888;48.606;9.630;2022-08-03T08:03:03;6.30;;;2.93;;
19495;SDS011;9888;48.606;9.630;2022-08-03T08:05:36;5.13;;;2.70;;
19495;SDS011;9888;48.606;9.630;2022-08-03T08:08:05;5.17;;;2.50;;
19495;SDS011;9888;48.606;9.630;2022-08-03T08:10:33;6.20;;;2.80;;
19495;SDS011;9888;48.606;9.630;2022-08-03T08:13:03;11.60;;;2.80;;
19495;SDS011;9888;48.606;9.630;2022-08-03T08:15:32;6.43;;;2.50;;
19495;SDS011;9888;48.606;9.630;2022-08-03T08:18:00;5.80;;;2.37;;
19495;SDS011;9888;48.606;9.630;2022-08-03T08:20:31;5.27;;;2.53;;
19495;SDS011;9888;48.606;9.630;2022-08-03T08:23:05;5.57;;;2.67;;
19495;SDS011;9888;48.606;9.630;2022-08-03T08:25:34;6.07;;;2.47;;
19495;SDS011;9888;48.606;9.630;2022-08-03T08:31:23;5.87;;;2.23;;
19495;SDS011;9888;48.606;9.630;2022-08-03T08:33:51;5.70;;;2.57;;
19495;SDS011;9888;48.606;9.630;2022-08-03T08:36:20;4.93;;;2.37;;
19495;SDS011;9888;48.606;9.630;2022-08-03T08:38:50;6.07;;;2.60;;
19495;SDS011;9888;48.606;9.630;2022-08-03T08:41:18;8.53;;;2.70;;
19495;SDS011;9888;48.606;9.630;2022-08-03T08:43:50;5.80;;;2.40;;
19495;SDS011;9888;48.606;9.630;2022-08-03T08:46:21;5.40;;;2.57;;
19495;SDS011;9888;48.606;9.630;2022-08-03T08:48:50;6.00;;;2.60;;
19495;SDS011;9888;48.606;9.630;2022-08-03T08:51:28;5.83;;;2.70;;
19495;SDS011;9888;48.606;9.630;2022-08-03T08:54:02;5.60;;;2.70;;
19495;SDS011;9888;48.606;9.630;2022-08-03T08:56:34;5.60;;;3.00;;
19495;SDS011;9888;48.606;9.630;2022-08-03T08:59:03;5.40;;;2.53;;
19495;SDS011;9888;48.606;9.630;2022-08-03T09:01:32;6.00;;;2.80;;
19495;SDS011;9888;48.606;9.630;2022-08-03T09:03:59;5.60;;;3.00;;
19495;SDS011;9888;48.606;9.630;2022-08-03T09:09:53;6.33;;;2.90;;
19495;SDS011;9888;48.606;9.630;2022-08-03T09:15:30;6.80;;;3.30;;
19495;SDS011;9888;48.606;9.630;2022-08-03T09:18:00;5.30;;;2.90;;
19495;SDS011;9888;48.606;9.630;2022-08-03T09:20:30;7.80;;;3.43;;
19495;SDS011;9888;48.606;9.630;2022-08-03T09:23:01;5.90;;;3.10;;
19495;SDS011;9888;48.606;9.630;2022-08-03T09:25:35;6.87;;;3.30;;
19495;SDS011;9888;48.606;9.630;2022-08-03T09:31:13;8.30;;;3.20;;
19495;SDS011;9888;48.606;9.630;2022-08-03T09:33:48;9.50;;;3.47;;
19495;SDS011;9888;48.606;9.630;2022-08-03T09:39:12;7.37;;;3.73;;
19495;SDS011;9888;48.606;9.630;2022-08-03T09:45:04;5.80;;;3.30;;
19495;SDS011;9888;48.606;9.630;2022-08-03T09:47:33;7.90;;;3.77;;
19495;SDS011;9888;48.606;9.630;2022-08-03T09:50:03;9.07;;;3.90;;
19495;SDS011;9888;48.606;9.630;2022-08-03T09:52:35;6.83;;;3.57;;
19495;SDS011;9888;48.606;9.630;2022-08-03T09:55:22;11.40;;;4.23;;
19495;SDS011;9888;48.606;9.630;2022-08-03T09:58:02;8.13;;;3.57;;
19495;SDS011;9888;48.606;9.630;2022-08-03T10:06:24;5.83;;;3.43;;
19495;SDS011;9888;48.606;9.630;2022-08-03T10:11:42;7.27;;;3.67;;
19495;SDS011;9888;48.606;9.630;2022-08-03T10:14:14;6.63;;;3.60;;
19495;SDS011;9888;48.606;9.630;2022-08-03T10:16:57;10.40;;;3.50;;
19495;SDS011;9888;48.606;9.630;2022-08-03T10:19:25;6.10;;;3.40;;
19495;SDS011;9888;48.606;9.630;2022-08-03T10:21:55;6.90;;;3.60;;
19495;SDS011;9888;48.606;9.630;2022-08-03T10:24:28;7.83;;;3.80;;
19495;SDS011;9888;48.606;9.630;2022-08-03T10:27:00;7.50;;;3.67;;
19495;SDS011;9888;48.606;9.630;2022-08-03T10:29:37;5.87;;;3.23;;
19495;SDS011;9888;48.606;9.630;2022-08-03T10:35:14;9.03;;;3.50;;
19495;SDS011;9888;48.606;9.630;2022-08-03T10:40:28;7.03;;;3.13;;
19495;SDS011;9888;48.606;9.630;2022-08-03T10:43:02;5.43;;;3.03;;
19495;SDS011;9888;48.606;9.630;2022-08-03T10:45:44;5.97;;;3.40;;
19495;SDS011;9888;48.606;9.630;2022-08-03T10:48:15;6.77;;;3.70;;
19495;SDS011;9888;48.606;9.630;2022-08-03T10:50:43;5.87;;;2.93;;
19495;SDS011;9888;48.606;9.630;2022-08-03T23:12:06;6.93;;;3.80;;
19495;SDS011;9888;48.606;9.630;2022-08-03T23:21:18;7.60;;;4.33;;
19495;SDS011;9888;48.606;9.630;2022-08-03T23:23:46;6.63;;;3.63;;
19495;SDS011;9888;48.606;9.630;2022-08-03T23:26:17;7.63;;;3.87;;
19495;SDS011;9888;48.606;9.630;2022-08-03T23:35:32;7.90;;;3.80;;
